Mount Union, Iowa
Current Conditions -  °F | °C
As of 12:15 AM on Thursday 23 Oct 2014 (Local Time) from KMPZ Reporting Station
Clear Clear  
Wind Chill: 42°   Ceiling: Unl
Heat Index: 44°   Visibility: 10mi
Dew Point: 38°   Wind: 5mph
Humidity: 80%   Direction: 160°SSE
Pressure: 30.18"   Gusts: NA
Location:  41.06°N, 91.39°W
Report Text: KMPZ 230515Z AUTO 16004KT 10SM CLR 07/04 A3018 RMK AO2 T00680035
Loading
Personal Weather Stations






























Interactive Weather Map
Tropical Storm Tracking
New forecast layout! Learn more

10-Day Weather Forecast

Advertisements
Track Severe Weather on mobile